sensor_id;sensor_type;location;lat;lon;timestamp;P1;durP1;ratioP1;P2;durP2;ratioP2
51066;SDS011;37112;45.892;-123.962;2022-07-17T00:02:40;22.80;;;3.70;;
51066;SDS011;37112;45.892;-123.962;2022-07-17T00:05:12;15.70;;;2.90;;
51066;SDS011;37112;45.892;-123.962;2022-07-17T00:07:46;22.80;;;3.80;;
51066;SDS011;37112;45.892;-123.962;2022-07-17T00:10:19;23.40;;;2.70;;
51066;SDS011;37112;45.892;-123.962;2022-07-17T00:12:55;18.60;;;3.90;;
51066;SDS011;37112;45.892;-123.962;2022-07-17T00:15:51;19.50;;;3.80;;
51066;SDS011;37112;45.892;-123.962;2022-07-17T00:18:24;11.50;;;2.20;;
51066;SDS011;37112;45.892;-123.962;2022-07-17T00:20:58;19.20;;;4.20;;
51066;SDS011;37112;45.892;-123.962;2022-07-17T00:23:31;23.20;;;4.00;;
51066;SDS011;37112;45.892;-123.962;2022-07-17T00:26:05;14.50;;;3.20;;
51066;SDS011;37112;45.892;-123.962;2022-07-17T00:28:39;17.40;;;4.50;;
51066;SDS011;37112;45.892;-123.962;2022-07-17T00:31:13;19.10;;;4.40;;
51066;SDS011;37112;45.892;-123.962;2022-07-17T00:33:46;13.00;;;3.00;;
51066;SDS011;37112;45.892;-123.962;2022-07-17T00:36:20;25.50;;;4.00;;
51066;SDS011;37112;45.892;-123.962;2022-07-17T00:38:54;13.00;;;3.40;;
51066;SDS011;37112;45.892;-123.962;2022-07-17T00:41:28;17.90;;;4.30;;
51066;SDS011;37112;45.892;-123.962;2022-07-17T00:44:07;18.90;;;3.50;;
51066;SDS011;37112;45.892;-123.962;2022-07-17T00:46:41;17.80;;;3.80;;
51066;SDS011;37112;45.892;-123.962;2022-07-17T00:49:15;14.70;;;4.30;;
51066;SDS011;37112;45.892;-123.962;2022-07-17T00:51:51;21.80;;;4.50;;
51066;SDS011;37112;45.892;-123.962;2022-07-17T00:54:28;26.90;;;4.50;;
51066;SDS011;37112;45.892;-123.962;2022-07-17T00:57:05;11.10;;;2.40;;
51066;SDS011;37112;45.892;-123.962;2022-07-17T00:59:39;7.90;;;2.30;;
51066;SDS011;37112;45.892;-123.962;2022-07-17T01:02:13;16.90;;;4.50;;
51066;SDS011;37112;45.892;-123.962;2022-07-17T01:04:46;17.70;;;3.50;;
51066;SDS011;37112;45.892;-123.962;2022-07-17T01:07:19;21.30;;;4.40;;
51066;SDS011;37112;45.892;-123.962;2022-07-17T01:09:53;10.60;;;2.70;;
51066;SDS011;37112;45.892;-123.962;2022-07-17T01:12:27;17.00;;;3.00;;
51066;SDS011;37112;45.892;-123.962;2022-07-17T01:15:03;14.10;;;3.10;;
51066;SDS011;37112;45.892;-123.962;2022-07-17T01:17:41;20.50;;;3.90;;
51066;SDS011;37112;45.892;-123.962;2022-07-17T01:20:20;10.90;;;2.30;;
51066;SDS011;37112;45.892;-123.962;2022-07-17T01:25:23;17.70;;;2.30;;
51066;SDS011;37112;45.892;-123.962;2022-07-17T01:27:56;9.50;;;2.00;;
51066;SDS011;37112;45.892;-123.962;2022-07-17T01:30:31;17.90;;;2.40;;
51066;SDS011;37112;45.892;-123.962;2022-07-17T01:33:05;14.40;;;3.60;;
51066;SDS011;37112;45.892;-123.962;2022-07-17T01:35:40;22.10;;;5.00;;
51066;SDS011;37112;45.892;-123.962;2022-07-17T01:38:15;21.00;;;3.80;;
51066;SDS011;37112;45.892;-123.962;2022-07-17T01:40:48;20.00;;;4.10;;
51066;SDS011;37112;45.892;-123.962;2022-07-17T01:43:21;18.90;;;3.90;;
51066;SDS011;37112;45.892;-123.962;2022-07-17T01:45:55;25.20;;;6.50;;
51066;SDS011;37112;45.892;-123.962;2022-07-17T01:48:28;23.10;;;3.60;;
51066;SDS011;37112;45.892;-123.962;2022-07-17T01:51:02;13.60;;;3.40;;
51066;SDS011;37112;45.892;-123.962;2022-07-17T01:53:37;16.90;;;3.40;;
51066;SDS011;37112;45.892;-123.962;2022-07-17T01:56:10;34.60;;;4.80;;
51066;SDS011;37112;45.892;-123.962;2022-07-17T01:58:44;21.00;;;4.00;;
51066;SDS011;37112;45.892;-123.962;2022-07-17T02:01:18;13.00;;;2.80;;
51066;SDS011;37112;45.892;-123.962;2022-07-17T02:03:52;20.40;;;3.60;;
51066;SDS011;37112;45.892;-123.962;2022-07-17T02:06:26;19.70;;;3.50;;
51066;SDS011;37112;45.892;-123.962;2022-07-17T02:08:59;17.90;;;3.40;;
51066;SDS011;37112;45.892;-123.962;2022-07-17T02:11:33;17.60;;;4.40;;
51066;SDS011;37112;45.892;-123.962;2022-07-17T02:14:06;17.70;;;4.70;;
51066;SDS011;37112;45.892;-123.962;2022-07-17T02:16:40;7.00;;;2.00;;
51066;SDS011;37112;45.892;-123.962;2022-07-17T02:19:14;17.50;;;3.40;;
51066;SDS011;37112;45.892;-123.962;2022-07-17T02:21:47;16.10;;;3.60;;
51066;SDS011;37112;45.892;-123.962;2022-07-17T02:24:21;9.40;;;1.80;;
51066;SDS011;37112;45.892;-123.962;2022-07-17T02:26:54;19.70;;;3.60;;
51066;SDS011;37112;45.892;-123.962;2022-07-17T02:29:28;7.20;;;2.20;;
51066;SDS011;37112;45.892;-123.962;2022-07-17T02:32:03;26.70;;;4.70;;
51066;SDS011;37112;45.892;-123.962;2022-07-17T02:34:39;20.10;;;4.70;;
51066;SDS011;37112;45.892;-123.962;2022-07-17T02:37:12;9.60;;;3.30;;
51066;SDS011;37112;45.892;-123.962;2022-07-17T02:39:46;11.30;;;3.40;;
51066;SDS011;37112;45.892;-123.962;2022-07-17T02:42:26;13.10;;;3.80;;
51066;SDS011;37112;45.892;-123.962;2022-07-17T02:45:00;8.80;;;3.20;;
51066;SDS011;37112;45.892;-123.962;2022-07-17T02:47:36;22.70;;;6.10;;
51066;SDS011;37112;45.892;-123.962;2022-07-17T02:50:10;15.00;;;3.50;;
51066;SDS011;37112;45.892;-123.962;2022-07-17T02:52:44;19.00;;;3.10;;
51066;SDS011;37112;45.892;-123.962;2022-07-17T02:55:18;21.50;;;4.10;;
51066;SDS011;37112;45.892;-123.962;2022-07-17T02:57:51;10.20;;;2.00;;
51066;SDS011;37112;45.892;-123.962;2022-07-17T03:00:25;14.70;;;2.50;;
51066;SDS011;37112;45.892;-123.962;2022-07-17T03:02:59;9.30;;;2.10;;
51066;SDS011;37112;45.892;-123.962;2022-07-17T03:05:33;21.10;;;4.00;;
51066;SDS011;37112;45.892;-123.962;2022-07-17T03:08:07;6.50;;;1.70;;
51066;SDS011;37112;45.892;-123.962;2022-07-17T03:10:41;14.40;;;2.80;;
51066;SDS011;37112;45.892;-123.962;2022-07-17T03:13:14;19.70;;;3.10;;
51066;SDS011;37112;45.892;-123.962;2022-07-17T03:15:47;14.90;;;2.50;;
51066;SDS011;37112;45.892;-123.962;2022-07-17T03:18:21;10.40;;;2.00;;
51066;SDS011;37112;45.892;-123.962;2022-07-17T03:20:55;17.90;;;2.80;;
51066;SDS011;37112;45.892;-123.962;2022-07-17T03:23:28;17.90;;;2.00;;
51066;SDS011;37112;45.892;-123.962;2022-07-17T03:26:02;8.40;;;1.90;;
51066;SDS011;37112;45.892;-123.962;2022-07-17T03:28:35;3.40;;;1.30;;
51066;SDS011;37112;45.892;-123.962;2022-07-17T03:31:08;7.70;;;1.60;;
51066;SDS011;37112;45.892;-123.962;2022-07-17T03:33:43;2.70;;;1.70;;
51066;SDS011;37112;45.892;-123.962;2022-07-17T03:36:16;4.30;;;1.30;;
51066;SDS011;37112;45.892;-123.962;2022-07-17T03:38:51;6.40;;;2.00;;
51066;SDS011;37112;45.892;-123.962;2022-07-17T03:41:24;6.30;;;1.30;;
51066;SDS011;37112;45.892;-123.962;2022-07-17T03:43:58;5.20;;;2.10;;
51066;SDS011;37112;45.892;-123.962;2022-07-17T03:46:31;4.90;;;2.20;;
51066;SDS011;37112;45.892;-123.962;2022-07-17T03:49:05;6.10;;;1.90;;
51066;SDS011;37112;45.892;-123.962;2022-07-17T03:51:43;4.30;;;1.70;;
51066;SDS011;37112;45.892;-123.962;2022-07-17T03:54:16;4.40;;;1.90;;
51066;SDS011;37112;45.892;-123.962;2022-07-17T03:56:49;7.30;;;2.60;;
51066;SDS011;37112;45.892;-123.962;2022-07-17T03:59:22;4.40;;;3.40;;
51066;SDS011;37112;45.892;-123.962;2022-07-17T04:01:58;6.30;;;2.60;;
51066;SDS011;37112;45.892;-123.962;2022-07-17T04:04:24;2.10;;;1.50;;
51066;SDS011;37112;45.892;-123.962;2022-07-17T04:06:57;3.10;;;1.40;;
51066;SDS011;37112;45.892;-123.962;2022-07-17T04:09:30;2.50;;;1.50;;
51066;SDS011;37112;45.892;-123.962;2022-07-17T04:12:04;3.90;;;0.90;;
51066;SDS011;37112;45.892;-123.962;2022-07-17T04:14:37;2.90;;;1.00;;
51066;SDS011;37112;45.892;-123.962;2022-07-17T04:17:11;2.80;;;1.10;;
51066;SDS011;37112;45.892;-123.962;2022-07-17T04:19:45;2.40;;;1.00;;
51066;SDS011;37112;45.892;-123.962;2022-07-17T04:22:19;3.80;;;1.10;;
51066;SDS011;37112;45.892;-123.962;2022-07-17T04:24:52;1.80;;;0.90;;
51066;SDS011;37112;45.892;-123.962;2022-07-17T04:27:26;2.50;;;0.90;;
51066;SDS011;37112;45.892;-123.962;2022-07-17T04:30:00;3.90;;;1.00;;
51066;SDS011;37112;45.892;-123.962;2022-07-17T04:32:35;2.30;;;1.10;;
51066;SDS011;37112;45.892;-123.962;2022-07-17T04:35:09;3.30;;;1.40;;
51066;SDS011;37112;45.892;-123.962;2022-07-17T04:37:43;6.40;;;2.80;;
51066;SDS011;37112;45.892;-123.962;2022-07-17T04:40:16;6.00;;;3.90;;
51066;SDS011;37112;45.892;-123.962;2022-07-17T04:42:50;7.30;;;5.20;;
51066;SDS011;37112;45.892;-123.962;2022-07-17T04:45:23;10.60;;;6.70;;
51066;SDS011;37112;45.892;-123.962;2022-07-17T04:47:59;9.00;;;5.50;;
51066;SDS011;37112;45.892;-123.962;2022-07-17T04:50:34;8.50;;;4.60;;
51066;SDS011;37112;45.892;-123.962;2022-07-17T04:53:08;5.50;;;3.20;;
51066;SDS011;37112;45.892;-123.962;2022-07-17T04:55:50;4.50;;;2.80;;
51066;SDS011;37112;45.892;-123.962;2022-07-17T04:58:23;5.90;;;3.00;;
51066;SDS011;37112;45.892;-123.962;2022-07-17T05:00:56;4.50;;;3.00;;
51066;SDS011;37112;45.892;-123.962;2022-07-17T05:03:29;8.00;;;3.20;;
51066;SDS011;37112;45.892;-123.962;2022-07-17T05:06:03;7.30;;;3.70;;
51066;SDS011;37112;45.892;-123.962;2022-07-17T05:08:37;4.90;;;2.30;;
51066;SDS011;37112;45.892;-123.962;2022-07-17T05:11:11;5.20;;;1.80;;
51066;SDS011;37112;45.892;-123.962;2022-07-17T05:13:43;5.30;;;1.60;;
51066;SDS011;37112;45.892;-123.962;2022-07-17T05:16:17;3.80;;;1.50;;
51066;SDS011;37112;45.892;-123.962;2022-07-17T05:18:51;6.90;;;1.20;;
51066;SDS011;37112;45.892;-123.962;2022-07-17T05:21:25;6.40;;;1.60;;
51066;SDS011;37112;45.892;-123.962;2022-07-17T05:23:59;3.50;;;1.20;;
51066;SDS011;37112;45.892;-123.962;2022-07-17T05:26:33;2.90;;;1.10;;
51066;SDS011;37112;45.892;-123.962;2022-07-17T05:29:06;3.30;;;1.20;;
51066;SDS011;37112;45.892;-123.962;2022-07-17T05:31:40;2.20;;;1.30;;
51066;SDS011;37112;45.892;-123.962;2022-07-17T05:34:14;5.60;;;1.20;;
51066;SDS011;37112;45.892;-123.962;2022-07-17T05:36:47;4.20;;;1.10;;
51066;SDS011;37112;45.892;-123.962;2022-07-17T05:39:21;3.10;;;1.30;;
51066;SDS011;37112;45.892;-123.962;2022-07-17T05:41:55;4.10;;;1.40;;
51066;SDS011;37112;45.892;-123.962;2022-07-17T05:44:29;3.40;;;1.30;;
51066;SDS011;37112;45.892;-123.962;2022-07-17T05:47:02;2.30;;;1.00;;
51066;SDS011;37112;45.892;-123.962;2022-07-17T05:49:34;4.80;;;1.10;;
51066;SDS011;37112;45.892;-123.962;2022-07-17T05:52:08;3.60;;;1.10;;
51066;SDS011;37112;45.892;-123.962;2022-07-17T05:54:41;2.40;;;0.90;;
51066;SDS011;37112;45.892;-123.962;2022-07-17T05:57:15;4.20;;;1.10;;
51066;SDS011;37112;45.892;-123.962;2022-07-17T05:59:49;3.00;;;1.10;;
51066;SDS011;37112;45.892;-123.962;2022-07-17T06:02:22;3.20;;;1.10;;
51066;SDS011;37112;45.892;-123.962;2022-07-17T06:04:56;1.90;;;1.00;;
51066;SDS011;37112;45.892;-123.962;2022-07-17T06:07:30;7.40;;;1.20;;
51066;SDS011;37112;45.892;-123.962;2022-07-17T06:10:04;2.80;;;0.80;;
51066;SDS011;37112;45.892;-123.962;2022-07-17T06:12:40;5.50;;;1.10;;
51066;SDS011;37112;45.892;-123.962;2022-07-17T06:15:15;4.10;;;1.00;;
51066;SDS011;37112;45.892;-123.962;2022-07-17T06:17:48;4.20;;;1.40;;
51066;SDS011;37112;45.892;-123.962;2022-07-17T06:20:22;3.00;;;0.90;;
51066;SDS011;37112;45.892;-123.962;2022-07-17T06:22:55;2.50;;;0.90;;
51066;SDS011;37112;45.892;-123.962;2022-07-17T06:25:22;2.00;;;0.90;;
51066;SDS011;37112;45.892;-123.962;2022-07-17T06:27:55;5.00;;;1.00;;
51066;SDS011;37112;45.892;-123.962;2022-07-17T06:30:29;4.20;;;1.10;;
51066;SDS011;37112;45.892;-123.962;2022-07-17T06:33:02;2.60;;;1.00;;
51066;SDS011;37112;45.892;-123.962;2022-07-17T06:35:35;6.60;;;1.30;;
51066;SDS011;37112;45.892;-123.962;2022-07-17T06:38:10;5.50;;;1.40;;
51066;SDS011;37112;45.892;-123.962;2022-07-17T06:40:44;4.10;;;1.00;;
51066;SDS011;37112;45.892;-123.962;2022-07-17T06:43:10;4.60;;;1.20;;
51066;SDS011;37112;45.892;-123.962;2022-07-17T06:45:43;3.80;;;1.10;;
51066;SDS011;37112;45.892;-123.962;2022-07-17T06:48:19;3.20;;;0.90;;
51066;SDS011;37112;45.892;-123.962;2022-07-17T06:50:53;4.20;;;1.00;;
51066;SDS011;37112;45.892;-123.962;2022-07-17T06:53:26;4.30;;;1.00;;
51066;SDS011;37112;45.892;-123.962;2022-07-17T06:56:00;3.10;;;1.20;;
51066;SDS011;37112;45.892;-123.962;2022-07-17T06:58:34;6.80;;;1.10;;
51066;SDS011;37112;45.892;-123.962;2022-07-17T07:01:07;1.90;;;1.20;;
51066;SDS011;37112;45.892;-123.962;2022-07-17T07:03:41;4.50;;;1.20;;
51066;SDS011;37112;45.892;-123.962;2022-07-17T07:06:14;4.50;;;1.60;;
51066;SDS011;37112;45.892;-123.962;2022-07-17T07:08:49;3.10;;;0.90;;
51066;SDS011;37112;45.892;-123.962;2022-07-17T07:11:23;4.50;;;1.20;;
51066;SDS011;37112;45.892;-123.962;2022-07-17T07:13:57;3.50;;;1.00;;
51066;SDS011;37112;45.892;-123.962;2022-07-17T07:16:31;4.90;;;1.10;;
51066;SDS011;37112;45.892;-123.962;2022-07-17T07:19:05;5.50;;;1.20;;
51066;SDS011;37112;45.892;-123.962;2022-07-17T07:21:38;6.40;;;1.00;;
51066;SDS011;37112;45.892;-123.962;2022-07-17T07:24:12;2.00;;;1.00;;
51066;SDS011;37112;45.892;-123.962;2022-07-17T07:26:44;3.50;;;1.20;;
51066;SDS011;37112;45.892;-123.962;2022-07-17T07:29:18;4.70;;;1.20;;
51066;SDS011;37112;45.892;-123.962;2022-07-17T07:31:41;2.00;;;0.90;;
51066;SDS011;37112;45.892;-123.962;2022-07-17T07:34:16;4.90;;;1.10;;
51066;SDS011;37112;45.892;-123.962;2022-07-17T07:36:49;3.90;;;1.20;;
51066;SDS011;37112;45.892;-123.962;2022-07-17T07:39:23;2.80;;;1.00;;
51066;SDS011;37112;45.892;-123.962;2022-07-17T07:41:56;1.50;;;1.00;;
51066;SDS011;37112;45.892;-123.962;2022-07-17T07:44:30;5.20;;;1.20;;
51066;SDS011;37112;45.892;-123.962;2022-07-17T07:47:04;3.30;;;1.10;;
51066;SDS011;37112;45.892;-123.962;2022-07-17T07:49:37;2.60;;;1.10;;
51066;SDS011;37112;45.892;-123.962;2022-07-17T07:52:11;5.50;;;1.30;;
51066;SDS011;37112;45.892;-123.962;2022-07-17T07:54:44;5.40;;;1.10;;
51066;SDS011;37112;45.892;-123.962;2022-07-17T07:57:19;6.50;;;1.30;;
51066;SDS011;37112;45.892;-123.962;2022-07-17T07:59:52;6.10;;;1.40;;
51066;SDS011;37112;45.892;-123.962;2022-07-17T08:02:17;4.80;;;1.10;;
51066;SDS011;37112;45.892;-123.962;2022-07-17T08:04:51;3.20;;;1.50;;
51066;SDS011;37112;45.892;-123.962;2022-07-17T08:07:24;5.20;;;1.10;;
51066;SDS011;37112;45.892;-123.962;2022-07-17T08:09:58;6.90;;;1.40;;
51066;SDS011;37112;45.892;-123.962;2022-07-17T08:12:31;2.80;;;1.20;;
51066;SDS011;37112;45.892;-123.962;2022-07-17T08:15:13;1.80;;;0.90;;
51066;SDS011;37112;45.892;-123.962;2022-07-17T08:17:48;3.80;;;1.30;;
51066;SDS011;37112;45.892;-123.962;2022-07-17T08:20:23;3.90;;;1.40;;
51066;SDS011;37112;45.892;-123.962;2022-07-17T08:22:56;3.70;;;1.70;;
51066;SDS011;37112;45.892;-123.962;2022-07-17T08:25:33;7.10;;;1.60;;
51066;SDS011;37112;45.892;-123.962;2022-07-17T08:28:06;3.20;;;1.60;;
51066;SDS011;37112;45.892;-123.962;2022-07-17T08:30:40;5.20;;;1.60;;
51066;SDS011;37112;45.892;-123.962;2022-07-17T08:33:14;4.00;;;1.50;;
51066;SDS011;37112;45.892;-123.962;2022-07-17T08:35:47;6.70;;;1.40;;
51066;SDS011;37112;45.892;-123.962;2022-07-17T08:38:21;7.80;;;1.70;;
51066;SDS011;37112;45.892;-123.962;2022-07-17T08:40:55;5.50;;;1.50;;
51066;SDS011;37112;45.892;-123.962;2022-07-17T08:43:28;6.30;;;1.40;;
51066;SDS011;37112;45.892;-123.962;2022-07-17T08:46:08;6.40;;;1.60;;
51066;SDS011;37112;45.892;-123.962;2022-07-17T08:48:36;4.00;;;1.30;;
51066;SDS011;37112;45.892;-123.962;2022-07-17T08:51:11;5.00;;;1.20;;
51066;SDS011;37112;45.892;-123.962;2022-07-17T08:53:46;6.60;;;1.40;;
51066;SDS011;37112;45.892;-123.962;2022-07-17T08:56:19;3.50;;;1.40;;
51066;SDS011;37112;45.892;-123.962;2022-07-17T08:58:54;5.00;;;1.30;;
51066;SDS011;37112;45.892;-123.962;2022-07-17T09:01:27;4.60;;;1.50;;
51066;SDS011;37112;45.892;-123.962;2022-07-17T09:03:59;7.10;;;1.40;;
51066;SDS011;37112;45.892;-123.962;2022-07-17T09:06:37;5.60;;;1.50;;
51066;SDS011;37112;45.892;-123.962;2022-07-17T09:09:09;4.10;;;1.90;;
51066;SDS011;37112;45.892;-123.962;2022-07-17T09:11:46;4.00;;;1.30;;
51066;SDS011;37112;45.892;-123.962;2022-07-17T09:14:22;4.20;;;1.40;;
51066;SDS011;37112;45.892;-123.962;2022-07-17T09:17:07;5.40;;;1.20;;
51066;SDS011;37112;45.892;-123.962;2022-07-17T09:19:43;4.10;;;1.20;;
51066;SDS011;37112;45.892;-123.962;2022-07-17T09:22:16;4.70;;;1.70;;
51066;SDS011;37112;45.892;-123.962;2022-07-17T09:24:52;4.50;;;1.40;;
51066;SDS011;37112;45.892;-123.962;2022-07-17T09:27:32;2.80;;;1.40;;
51066;SDS011;37112;45.892;-123.962;2022-07-17T09:30:06;4.30;;;1.20;;
51066;SDS011;37112;45.892;-123.962;2022-07-17T09:32:42;3.80;;;1.20;;
51066;SDS011;37112;45.892;-123.962;2022-07-17T09:35:15;5.50;;;1.30;;
51066;SDS011;37112;45.892;-123.962;2022-07-17T09:37:53;2.80;;;1.20;;
51066;SDS011;37112;45.892;-123.962;2022-07-17T09:40:28;4.30;;;1.20;;
51066;SDS011;37112;45.892;-123.962;2022-07-17T09:43:18;7.20;;;1.50;;
51066;SDS011;37112;45.892;-123.962;2022-07-17T09:45:51;3.00;;;1.20;;
51066;SDS011;37112;45.892;-123.962;2022-07-17T09:48:24;3.30;;;1.90;;
51066;SDS011;37112;45.892;-123.962;2022-07-17T09:50:58;1.50;;;0.90;;
51066;SDS011;37112;45.892;-123.962;2022-07-17T09:53:32;3.50;;;1.10;;
51066;SDS011;37112;45.892;-123.962;2022-07-17T09:56:07;1.70;;;0.70;;
51066;SDS011;37112;45.892;-123.962;2022-07-17T09:58:41;4.90;;;1.30;;
51066;SDS011;37112;45.892;-123.962;2022-07-17T10:01:28;1.90;;;0.90;;
51066;SDS011;37112;45.892;-123.962;2022-07-17T10:04:04;2.30;;;1.00;;
51066;SDS011;37112;45.892;-123.962;2022-07-17T10:06:39;4.70;;;1.10;;
51066;SDS011;37112;45.892;-123.962;2022-07-17T10:09:14;2.80;;;1.00;;
51066;SDS011;37112;45.892;-123.962;2022-07-17T10:11:48;2.30;;;0.90;;
51066;SDS011;37112;45.892;-123.962;2022-07-17T10:14:22;5.40;;;0.90;;
51066;SDS011;37112;45.892;-123.962;2022-07-17T10:17:05;3.50;;;0.90;;
51066;SDS011;37112;45.892;-123.962;2022-07-17T10:19:46;1.50;;;0.70;;
51066;SDS011;37112;45.892;-123.962;2022-07-17T10:22:22;1.30;;;0.80;;
51066;SDS011;37112;45.892;-123.962;2022-07-17T10:24:56;1.60;;;0.90;;
51066;SDS011;37112;45.892;-123.962;2022-07-17T10:27:35;1.00;;;0.80;;
51066;SDS011;37112;45.892;-123.962;2022-07-17T10:30:20;1.80;;;0.90;;
51066;SDS011;37112;45.892;-123.962;2022-07-17T10:32:56;2.10;;;0.80;;
51066;SDS011;37112;45.892;-123.962;2022-07-17T10:35:40;2.80;;;0.70;;
51066;SDS011;37112;45.892;-123.962;2022-07-17T10:38:17;2.90;;;0.90;;
51066;SDS011;37112;45.892;-123.962;2022-07-17T10:40:58;4.50;;;1.00;;
51066;SDS011;37112;45.892;-123.962;2022-07-17T10:43:41;2.10;;;0.70;;
51066;SDS011;37112;45.892;-123.962;2022-07-17T10:46:15;3.00;;;0.80;;
51066;SDS011;37112;45.892;-123.962;2022-07-17T10:48:49;1.10;;;0.60;;
51066;SDS011;37112;45.892;-123.962;2022-07-17T10:51:24;1.60;;;0.80;;
51066;SDS011;37112;45.892;-123.962;2022-07-17T10:53:59;6.10;;;0.90;;
51066;SDS011;37112;45.892;-123.962;2022-07-17T10:56:32;4.50;;;0.80;;
51066;SDS011;37112;45.892;-123.962;2022-07-17T10:59:08;1.30;;;0.80;;
51066;SDS011;37112;45.892;-123.962;2022-07-17T11:01:42;2.10;;;0.80;;
51066;SDS011;37112;45.892;-123.962;2022-07-17T11:04:16;2.90;;;0.70;;
51066;SDS011;37112;45.892;-123.962;2022-07-17T11:06:49;3.00;;;0.90;;
51066;SDS011;37112;45.892;-123.962;2022-07-17T11:09:23;1.20;;;0.70;;
51066;SDS011;37112;45.892;-123.962;2022-07-17T11:11:59;4.30;;;0.90;;
51066;SDS011;37112;45.892;-123.962;2022-07-17T11:14:26;4.20;;;0.90;;
51066;SDS011;37112;45.892;-123.962;2022-07-17T11:17:02;1.90;;;1.00;;
51066;SDS011;37112;45.892;-123.962;2022-07-17T11:19:43;1.40;;;0.80;;
51066;SDS011;37112;45.892;-123.962;2022-07-17T11:22:21;1.00;;;0.70;;
51066;SDS011;37112;45.892;-123.962;2022-07-17T11:24:55;1.80;;;0.80;;
51066;SDS011;37112;45.892;-123.962;2022-07-17T11:27:29;2.30;;;0.70;;
51066;SDS011;37112;45.892;-123.962;2022-07-17T11:30:03;1.60;;;0.80;;
51066;SDS011;37112;45.892;-123.962;2022-07-17T11:32:42;2.10;;;0.80;;
51066;SDS011;37112;45.892;-123.962;2022-07-17T11:35:17;3.20;;;0.80;;
51066;SDS011;37112;45.892;-123.962;2022-07-17T11:38:08;7.00;;;0.80;;
51066;SDS011;37112;45.892;-123.962;2022-07-17T11:40:47;1.00;;;0.60;;
51066;SDS011;37112;45.892;-123.962;2022-07-17T11:43:27;4.10;;;0.90;;
51066;SDS011;37112;45.892;-123.962;2022-07-17T11:46:03;1.50;;;1.00;;
51066;SDS011;37112;45.892;-123.962;2022-07-17T11:48:36;2.00;;;1.20;;
51066;SDS011;37112;45.892;-123.962;2022-07-17T11:51:12;5.40;;;1.00;;
51066;SDS011;37112;45.892;-123.962;2022-07-17T11:53:47;4.00;;;1.00;;
51066;SDS011;37112;45.892;-123.962;2022-07-17T11:56:22;4.10;;;0.70;;
51066;SDS011;37112;45.892;-123.962;2022-07-17T11:58:56;2.20;;;0.80;;
51066;SDS011;37112;45.892;-123.962;2022-07-17T12:01:37;1.50;;;0.90;;
51066;SDS011;37112;45.892;-123.962;2022-07-17T12:04:12;2.10;;;0.80;;
51066;SDS011;37112;45.892;-123.962;2022-07-17T12:06:46;1.20;;;0.70;;
51066;SDS011;37112;45.892;-123.962;2022-07-17T12:09:31;0.60;;;0.60;;
51066;SDS011;37112;45.892;-123.962;2022-07-17T12:12:05;2.20;;;0.80;;
51066;SDS011;37112;45.892;-123.962;2022-07-17T12:14:49;3.70;;;0.90;;
51066;SDS011;37112;45.892;-123.962;2022-07-17T12:17:25;2.60;;;0.70;;
51066;SDS011;37112;45.892;-123.962;2022-07-17T12:20:11;2.50;;;0.80;;
51066;SDS011;37112;45.892;-123.962;2022-07-17T12:22:46;3.00;;;0.60;;
51066;SDS011;37112;45.892;-123.962;2022-07-17T12:25:25;1.60;;;0.80;;
51066;SDS011;37112;45.892;-123.962;2022-07-17T12:27:58;3.90;;;1.10;;
51066;SDS011;37112;45.892;-123.962;2022-07-17T12:30:32;1.60;;;0.70;;
51066;SDS011;37112;45.892;-123.962;2022-07-17T12:33:07;2.50;;;0.60;;
51066;SDS011;37112;45.892;-123.962;2022-07-17T12:35:40;4.20;;;0.80;;
51066;SDS011;37112;45.892;-123.962;2022-07-17T12:38:14;4.00;;;1.10;;
51066;SDS011;37112;45.892;-123.962;2022-07-17T12:40:47;3.30;;;0.80;;
51066;SDS011;37112;45.892;-123.962;2022-07-17T12:43:21;3.70;;;0.90;;
51066;SDS011;37112;45.892;-123.962;2022-07-17T12:45:54;2.40;;;0.80;;
51066;SDS011;37112;45.892;-123.962;2022-07-17T12:48:36;4.10;;;0.90;;
51066;SDS011;37112;45.892;-123.962;2022-07-17T12:51:11;1.80;;;0.70;;
51066;SDS011;37112;45.892;-123.962;2022-07-17T12:53:45;4.50;;;0.90;;
51066;SDS011;37112;45.892;-123.962;2022-07-17T12:56:18;2.20;;;1.00;;
51066;SDS011;37112;45.892;-123.962;2022-07-17T12:58:52;3.10;;;0.70;;
51066;SDS011;37112;45.892;-123.962;2022-07-17T13:01:28;2.20;;;0.60;;
51066;SDS011;37112;45.892;-123.962;2022-07-17T13:04:02;2.10;;;0.80;;
51066;SDS011;37112;45.892;-123.962;2022-07-17T13:06:36;4.10;;;1.20;;
51066;SDS011;37112;45.892;-123.962;2022-07-17T13:09:09;1.40;;;0.80;;
51066;SDS011;37112;45.892;-123.962;2022-07-17T13:11:46;5.00;;;0.70;;
51066;SDS011;37112;45.892;-123.962;2022-07-17T13:14:20;1.50;;;0.90;;
51066;SDS011;37112;45.892;-123.962;2022-07-17T13:16:52;2.70;;;0.80;;
51066;SDS011;37112;45.892;-123.962;2022-07-17T13:19:25;2.10;;;0.80;;
51066;SDS011;37112;45.892;-123.962;2022-07-17T13:21:59;2.70;;;0.90;;
51066;SDS011;37112;45.892;-123.962;2022-07-17T13:24:35;2.10;;;0.90;;
51066;SDS011;37112;45.892;-123.962;2022-07-17T13:27:08;2.20;;;0.80;;
51066;SDS011;37112;45.892;-123.962;2022-07-17T13:29:45;1.20;;;0.80;;
51066;SDS011;37112;45.892;-123.962;2022-07-17T13:32:25;2.70;;;1.00;;
51066;SDS011;37112;45.892;-123.962;2022-07-17T13:34:59;1.40;;;0.80;;
51066;SDS011;37112;45.892;-123.962;2022-07-17T13:37:33;3.70;;;1.00;;
51066;SDS011;37112;45.892;-123.962;2022-07-17T13:40:07;4.90;;;1.20;;
51066;SDS011;37112;45.892;-123.962;2022-07-17T13:42:41;4.60;;;0.80;;
51066;SDS011;37112;45.892;-123.962;2022-07-17T13:45:14;2.30;;;0.70;;
51066;SDS011;37112;45.892;-123.962;2022-07-17T13:47:49;3.80;;;1.00;;
51066;SDS011;37112;45.892;-123.962;2022-07-17T13:50:23;3.90;;;0.90;;
51066;SDS011;37112;45.892;-123.962;2022-07-17T13:52:57;3.00;;;1.00;;
51066;SDS011;37112;45.892;-123.962;2022-07-17T13:55:33;2.00;;;0.90;;
51066;SDS011;37112;45.892;-123.962;2022-07-17T13:58:17;4.90;;;0.90;;
51066;SDS011;37112;45.892;-123.962;2022-07-17T14:00:50;1.80;;;1.10;;
51066;SDS011;37112;45.892;-123.962;2022-07-17T14:03:25;4.30;;;1.00;;
51066;SDS011;37112;45.892;-123.962;2022-07-17T14:05:58;2.40;;;0.80;;
51066;SDS011;37112;45.892;-123.962;2022-07-17T14:08:31;2.80;;;0.90;;
51066;SDS011;37112;45.892;-123.962;2022-07-17T14:11:05;1.50;;;1.00;;
51066;SDS011;37112;45.892;-123.962;2022-07-17T14:13:41;2.30;;;0.90;;
51066;SDS011;37112;45.892;-123.962;2022-07-17T14:16:16;3.00;;;1.30;;
51066;SDS011;37112;45.892;-123.962;2022-07-17T14:18:50;2.70;;;0.90;;
51066;SDS011;37112;45.892;-123.962;2022-07-17T14:21:31;4.00;;;1.10;;
51066;SDS011;37112;45.892;-123.962;2022-07-17T14:24:06;7.40;;;1.00;;
51066;SDS011;37112;45.892;-123.962;2022-07-17T14:26:39;4.90;;;1.00;;
51066;SDS011;37112;45.892;-123.962;2022-07-17T14:29:13;5.50;;;0.80;;
51066;SDS011;37112;45.892;-123.962;2022-07-17T14:31:47;3.20;;;1.00;;
51066;SDS011;37112;45.892;-123.962;2022-07-17T14:34:20;5.20;;;1.50;;
51066;SDS011;37112;45.892;-123.962;2022-07-17T14:36:54;5.90;;;1.00;;
51066;SDS011;37112;45.892;-123.962;2022-07-17T14:39:28;6.30;;;1.40;;
51066;SDS011;37112;45.892;-123.962;2022-07-17T14:42:01;1.80;;;0.90;;
51066;SDS011;37112;45.892;-123.962;2022-07-17T14:44:35;2.00;;;1.00;;
51066;SDS011;37112;45.892;-123.962;2022-07-17T14:47:07;5.80;;;1.70;;
51066;SDS011;37112;45.892;-123.962;2022-07-17T14:49:41;3.50;;;1.40;;
51066;SDS011;37112;45.892;-123.962;2022-07-17T14:52:14;3.50;;;1.10;;